sensor_id;sensor_type;location;lat;lon;timestamp;temperature;humidity
7472;DHT22;3777;48.722;8.110;2024-02-16T00:02:12;12.10;99.90
7472;DHT22;3777;48.722;8.110;2024-02-16T00:04:41;12.10;99.90
7472;DHT22;3777;48.722;8.110;2024-02-16T00:07:07;12.10;99.90
7472;DHT22;3777;48.722;8.110;2024-02-16T00:09:35;12.20;99.90
7472;DHT22;3777;48.722;8.110;2024-02-16T00:12:03;12.10;99.90
7472;DHT22;3777;48.722;8.110;2024-02-16T00:14:29;12.20;99.90
7472;DHT22;3777;48.722;8.110;2024-02-16T00:16:56;12.10;99.90
7472;DHT22;3777;48.722;8.110;2024-02-16T00:19:23;12.10;99.90
7472;DHT22;3777;48.722;8.110;2024-02-16T00:21:50;12.10;99.90
7472;DHT22;3777;48.722;8.110;2024-02-16T00:24:17;12.10;99.90
7472;DHT22;3777;48.722;8.110;2024-02-16T00:26:45;12.10;99.90
7472;DHT22;3777;48.722;8.110;2024-02-16T00:29:12;12.20;99.90
7472;DHT22;3777;48.722;8.110;2024-02-16T00:31:39;12.20;99.90
7472;DHT22;3777;48.722;8.110;2024-02-16T00:34:06;12.20;99.90
7472;DHT22;3777;48.722;8.110;2024-02-16T00:36:33;12.20;99.90
7472;DHT22;3777;48.722;8.110;2024-02-16T00:38:59;12.20;99.90
7472;DHT22;3777;48.722;8.110;2024-02-16T00:41:26;12.20;99.90
7472;DHT22;3777;48.722;8.110;2024-02-16T00:43:54;12.20;99.90
7472;DHT22;3777;48.722;8.110;2024-02-16T00:46:21;12.20;99.90
7472;DHT22;3777;48.722;8.110;2024-02-16T00:48:49;12.20;99.90
7472;DHT22;3777;48.722;8.110;2024-02-16T00:51:15;12.10;99.90
7472;DHT22;3777;48.722;8.110;2024-02-16T00:53:42;12.10;99.90
7472;DHT22;3777;48.722;8.110;2024-02-16T00:56:09;12.10;99.90
7472;DHT22;3777;48.722;8.110;2024-02-16T00:58:39;12.10;99.90
7472;DHT22;3777;48.722;8.110;2024-02-16T01:01:07;12.10;99.90
7472;DHT22;3777;48.722;8.110;2024-02-16T01:03:36;12.10;99.90
7472;DHT22;3777;48.722;8.110;2024-02-16T01:06:03;12.10;99.90
7472;DHT22;3777;48.722;8.110;2024-02-16T01:08:31;12.10;99.90
7472;DHT22;3777;48.722;8.110;2024-02-16T01:10:58;12.10;99.90
7472;DHT22;3777;48.722;8.110;2024-02-16T01:13:25;12.10;99.90
7472;DHT22;3777;48.722;8.110;2024-02-16T01:15:52;12.00;99.90
7472;DHT22;3777;48.722;8.110;2024-02-16T01:18:20;12.00;99.90
7472;DHT22;3777;48.722;8.110;2024-02-16T01:20:47;12.00;99.90
7472;DHT22;3777;48.722;8.110;2024-02-16T01:23:13;12.00;99.90
7472;DHT22;3777;48.722;8.110;2024-02-16T01:25:40;12.00;99.90
7472;DHT22;3777;48.722;8.110;2024-02-16T01:28:07;12.00;99.90
7472;DHT22;3777;48.722;8.110;2024-02-16T01:30:34;12.00;99.90
7472;DHT22;3777;48.722;8.110;2024-02-16T01:33:02;11.90;99.90
7472;DHT22;3777;48.722;8.110;2024-02-16T01:35:30;12.00;99.90
7472;DHT22;3777;48.722;8.110;2024-02-16T01:37:57;11.90;99.90
7472;DHT22;3777;48.722;8.110;2024-02-16T01:40:24;11.90;99.90
7472;DHT22;3777;48.722;8.110;2024-02-16T01:42:51;11.90;99.90
7472;DHT22;3777;48.722;8.110;2024-02-16T01:45:19;11.90;99.90
7472;DHT22;3777;48.722;8.110;2024-02-16T01:47:49;11.90;99.90
7472;DHT22;3777;48.722;8.110;2024-02-16T01:50:17;11.80;99.90
7472;DHT22;3777;48.722;8.110;2024-02-16T01:52:47;11.80;99.90
7472;DHT22;3777;48.722;8.110;2024-02-16T01:55:15;11.80;99.90
7472;DHT22;3777;48.722;8.110;2024-02-16T01:57:43;11.80;99.90
7472;DHT22;3777;48.722;8.110;2024-02-16T02:00:12;11.80;99.90
7472;DHT22;3777;48.722;8.110;2024-02-16T02:02:41;11.80;99.90
7472;DHT22;3777;48.722;8.110;2024-02-16T02:05:08;11.70;99.90
7472;DHT22;3777;48.722;8.110;2024-02-16T02:07:35;11.70;99.90
7472;DHT22;3777;48.722;8.110;2024-02-16T02:10:03;11.70;99.90
7472;DHT22;3777;48.722;8.110;2024-02-16T02:12:30;11.70;99.90
7472;DHT22;3777;48.722;8.110;2024-02-16T02:14:57;11.70;99.90
7472;DHT22;3777;48.722;8.110;2024-02-16T02:17:24;11.70;99.90
7472;DHT22;3777;48.722;8.110;2024-02-16T02:19:51;11.70;99.90
7472;DHT22;3777;48.722;8.110;2024-02-16T02:22:20;11.60;99.90
7472;DHT22;3777;48.722;8.110;2024-02-16T02:24:47;11.60;99.90
7472;DHT22;3777;48.722;8.110;2024-02-16T02:27:15;11.60;99.90
7472;DHT22;3777;48.722;8.110;2024-02-16T02:29:42;11.60;99.90
7472;DHT22;3777;48.722;8.110;2024-02-16T02:32:09;11.60;99.90
7472;DHT22;3777;48.722;8.110;2024-02-16T02:34:36;11.60;99.90
7472;DHT22;3777;48.722;8.110;2024-02-16T02:37:03;11.60;99.90
7472;DHT22;3777;48.722;8.110;2024-02-16T02:39:32;11.60;99.90
7472;DHT22;3777;48.722;8.110;2024-02-16T02:41:59;11.60;99.90
7472;DHT22;3777;48.722;8.110;2024-02-16T02:44:26;11.60;99.90
7472;DHT22;3777;48.722;8.110;2024-02-16T02:46:53;11.60;99.90
7472;DHT22;3777;48.722;8.110;2024-02-16T02:49:19;11.60;99.90
7472;DHT22;3777;48.722;8.110;2024-02-16T02:51:46;11.60;99.90
7472;DHT22;3777;48.722;8.110;2024-02-16T02:54:13;11.60;99.90
7472;DHT22;3777;48.722;8.110;2024-02-16T02:56:41;11.60;99.90
7472;DHT22;3777;48.722;8.110;2024-02-16T02:59:08;11.50;99.90
7472;DHT22;3777;48.722;8.110;2024-02-16T03:01:36;11.50;99.90
7472;DHT22;3777;48.722;8.110;2024-02-16T03:04:03;11.50;99.90
7472;DHT22;3777;48.722;8.110;2024-02-16T03:06:30;11.40;99.90
7472;DHT22;3777;48.722;8.110;2024-02-16T03:08:57;11.40;99.90
7472;DHT22;3777;48.722;8.110;2024-02-16T03:11:23;11.40;99.90
7472;DHT22;3777;48.722;8.110;2024-02-16T03:13:52;11.30;99.90
7472;DHT22;3777;48.722;8.110;2024-02-16T03:16:19;11.30;99.90
7472;DHT22;3777;48.722;8.110;2024-02-16T03:18:46;11.40;99.90
7472;DHT22;3777;48.722;8.110;2024-02-16T03:21:13;11.30;99.90
7472;DHT22;3777;48.722;8.110;2024-02-16T03:23:42;11.30;99.90
7472;DHT22;3777;48.722;8.110;2024-02-16T03:26:14;11.30;99.90
7472;DHT22;3777;48.722;8.110;2024-02-16T03:28:43;11.30;99.90
7472;DHT22;3777;48.722;8.110;2024-02-16T03:31:16;11.30;99.90
7472;DHT22;3777;48.722;8.110;2024-02-16T03:33:43;11.30;99.90
7472;DHT22;3777;48.722;8.110;2024-02-16T03:36:10;11.40;99.90
7472;DHT22;3777;48.722;8.110;2024-02-16T03:38:38;11.30;99.90
7472;DHT22;3777;48.722;8.110;2024-02-16T03:41:07;11.30;99.90
7472;DHT22;3777;48.722;8.110;2024-02-16T03:43:34;11.30;99.90
7472;DHT22;3777;48.722;8.110;2024-02-16T03:46:01;11.20;99.90
7472;DHT22;3777;48.722;8.110;2024-02-16T03:48:30;11.20;99.90
7472;DHT22;3777;48.722;8.110;2024-02-16T03:50:57;11.20;99.90
7472;DHT22;3777;48.722;8.110;2024-02-16T03:53:24;11.10;99.90
7472;DHT22;3777;48.722;8.110;2024-02-16T03:55:51;11.10;99.90
7472;DHT22;3777;48.722;8.110;2024-02-16T03:58:18;11.10;99.90
7472;DHT22;3777;48.722;8.110;2024-02-16T04:00:44;11.00;99.90
7472;DHT22;3777;48.722;8.110;2024-02-16T04:03:11;11.10;99.90
7472;DHT22;3777;48.722;8.110;2024-02-16T04:05:39;11.00;99.90
7472;DHT22;3777;48.722;8.110;2024-02-16T04:08:06;11.10;99.90
7472;DHT22;3777;48.722;8.110;2024-02-16T04:10:33;11.10;99.90
7472;DHT22;3777;48.722;8.110;2024-02-16T04:13:01;11.10;99.90
7472;DHT22;3777;48.722;8.110;2024-02-16T04:15:28;11.10;99.90
7472;DHT22;3777;48.722;8.110;2024-02-16T04:17:54;11.10;99.90
7472;DHT22;3777;48.722;8.110;2024-02-16T04:20:22;11.10;99.90
7472;DHT22;3777;48.722;8.110;2024-02-16T04:22:50;11.20;99.90
7472;DHT22;3777;48.722;8.110;2024-02-16T04:25:17;11.20;99.90
7472;DHT22;3777;48.722;8.110;2024-02-16T04:27:43;11.20;99.90
7472;DHT22;3777;48.722;8.110;2024-02-16T04:30:10;11.20;99.90
7472;DHT22;3777;48.722;8.110;2024-02-16T04:32:37;11.20;99.90
7472;DHT22;3777;48.722;8.110;2024-02-16T04:35:05;11.20;99.90
7472;DHT22;3777;48.722;8.110;2024-02-16T04:37:31;11.20;99.90
7472;DHT22;3777;48.722;8.110;2024-02-16T04:40:00;11.20;99.90
7472;DHT22;3777;48.722;8.110;2024-02-16T04:42:27;11.20;99.90
7472;DHT22;3777;48.722;8.110;2024-02-16T04:44:54;11.20;99.90
7472;DHT22;3777;48.722;8.110;2024-02-16T04:47:20;11.20;99.90
7472;DHT22;3777;48.722;8.110;2024-02-16T04:49:47;11.20;99.90
7472;DHT22;3777;48.722;8.110;2024-02-16T04:52:14;11.30;99.90
7472;DHT22;3777;48.722;8.110;2024-02-16T04:54:41;11.30;99.90
7472;DHT22;3777;48.722;8.110;2024-02-16T04:57:09;11.30;99.90
7472;DHT22;3777;48.722;8.110;2024-02-16T04:59:36;11.30;99.90
7472;DHT22;3777;48.722;8.110;2024-02-16T05:02:03;11.30;99.90
7472;DHT22;3777;48.722;8.110;2024-02-16T05:04:32;11.40;99.90
7472;DHT22;3777;48.722;8.110;2024-02-16T05:07:00;11.40;99.90
7472;DHT22;3777;48.722;8.110;2024-02-16T05:09:26;11.40;99.90
7472;DHT22;3777;48.722;8.110;2024-02-16T05:11:53;11.40;99.90
7472;DHT22;3777;48.722;8.110;2024-02-16T05:14:21;11.40;99.90
7472;DHT22;3777;48.722;8.110;2024-02-16T05:16:49;11.50;99.90
7472;DHT22;3777;48.722;8.110;2024-02-16T05:19:16;11.50;99.90
7472;DHT22;3777;48.722;8.110;2024-02-16T05:21:43;11.50;99.90
7472;DHT22;3777;48.722;8.110;2024-02-16T05:24:10;11.50;99.90
7472;DHT22;3777;48.722;8.110;2024-02-16T05:26:37;11.50;99.90
7472;DHT22;3777;48.722;8.110;2024-02-16T05:29:04;11.50;99.90
7472;DHT22;3777;48.722;8.110;2024-02-16T05:31:32;11.50;99.90
7472;DHT22;3777;48.722;8.110;2024-02-16T05:33:59;11.50;99.90
7472;DHT22;3777;48.722;8.110;2024-02-16T05:36:25;11.50;99.90
7472;DHT22;3777;48.722;8.110;2024-02-16T05:38:55;11.50;99.90
7472;DHT22;3777;48.722;8.110;2024-02-16T05:41:25;11.40;99.90
7472;DHT22;3777;48.722;8.110;2024-02-16T05:43:51;11.50;99.90
7472;DHT22;3777;48.722;8.110;2024-02-16T05:46:18;11.40;99.90
7472;DHT22;3777;48.722;8.110;2024-02-16T05:48:47;11.40;99.90
7472;DHT22;3777;48.722;8.110;2024-02-16T05:51:13;11.40;99.90
7472;DHT22;3777;48.722;8.110;2024-02-16T05:53:40;11.40;99.90
7472;DHT22;3777;48.722;8.110;2024-02-16T05:56:07;11.40;99.90
7472;DHT22;3777;48.722;8.110;2024-02-16T05:58:35;11.40;99.90
7472;DHT22;3777;48.722;8.110;2024-02-16T06:01:02;11.40;99.90
7472;DHT22;3777;48.722;8.110;2024-02-16T06:03:29;11.40;99.90
7472;DHT22;3777;48.722;8.110;2024-02-16T06:05:57;11.40;99.90
7472;DHT22;3777;48.722;8.110;2024-02-16T06:08:24;11.40;99.90
7472;DHT22;3777;48.722;8.110;2024-02-16T06:10:51;11.40;99.90
7472;DHT22;3777;48.722;8.110;2024-02-16T06:13:20;11.40;99.90
7472;DHT22;3777;48.722;8.110;2024-02-16T06:15:47;11.40;99.90
7472;DHT22;3777;48.722;8.110;2024-02-16T06:18:14;11.40;99.90
7472;DHT22;3777;48.722;8.110;2024-02-16T06:20:41;11.40;99.90
7472;DHT22;3777;48.722;8.110;2024-02-16T06:23:09;11.40;99.90
7472;DHT22;3777;48.722;8.110;2024-02-16T06:25:36;11.40;99.90
7472;DHT22;3777;48.722;8.110;2024-02-16T06:28:03;11.40;99.90
7472;DHT22;3777;48.722;8.110;2024-02-16T06:30:32;11.40;99.90
7472;DHT22;3777;48.722;8.110;2024-02-16T06:32:59;11.40;99.90
7472;DHT22;3777;48.722;8.110;2024-02-16T06:35:26;11.40;99.90
7472;DHT22;3777;48.722;8.110;2024-02-16T06:37:53;11.40;99.90
7472;DHT22;3777;48.722;8.110;2024-02-16T06:40:21;11.40;99.90
7472;DHT22;3777;48.722;8.110;2024-02-16T06:42:48;11.50;99.90
7472;DHT22;3777;48.722;8.110;2024-02-16T06:45:15;11.50;99.90
7472;DHT22;3777;48.722;8.110;2024-02-16T06:47:41;11.50;99.90
7472;DHT22;3777;48.722;8.110;2024-02-16T06:50:09;11.50;99.90
7472;DHT22;3777;48.722;8.110;2024-02-16T06:52:36;11.50;99.90
7472;DHT22;3777;48.722;8.110;2024-02-16T06:55:03;11.50;99.90
7472;DHT22;3777;48.722;8.110;2024-02-16T06:57:31;11.60;99.90
7472;DHT22;3777;48.722;8.110;2024-02-16T06:59:58;11.60;99.90
7472;DHT22;3777;48.722;8.110;2024-02-16T07:02:25;11.60;99.90
7472;DHT22;3777;48.722;8.110;2024-02-16T07:04:52;11.60;99.90
7472;DHT22;3777;48.722;8.110;2024-02-16T07:07:19;11.60;99.90
7472;DHT22;3777;48.722;8.110;2024-02-16T07:09:45;11.60;99.90
7472;DHT22;3777;48.722;8.110;2024-02-16T07:12:12;11.70;99.90
7472;DHT22;3777;48.722;8.110;2024-02-16T07:14:40;11.70;99.90
7472;DHT22;3777;48.722;8.110;2024-02-16T07:17:09;11.70;99.90
7472;DHT22;3777;48.722;8.110;2024-02-16T07:19:36;11.80;99.90
7472;DHT22;3777;48.722;8.110;2024-02-16T07:22:03;11.90;99.90
7472;DHT22;3777;48.722;8.110;2024-02-16T07:24:32;11.90;99.90
7472;DHT22;3777;48.722;8.110;2024-02-16T07:27:00;12.00;99.90
7472;DHT22;3777;48.722;8.110;2024-02-16T07:29:28;12.10;99.90
7472;DHT22;3777;48.722;8.110;2024-02-16T07:31:57;12.10;99.90
7472;DHT22;3777;48.722;8.110;2024-02-16T07:34:24;12.20;99.90
7472;DHT22;3777;48.722;8.110;2024-02-16T07:36:51;12.30;99.90
7472;DHT22;3777;48.722;8.110;2024-02-16T07:39:18;12.30;99.90
7472;DHT22;3777;48.722;8.110;2024-02-16T07:41:48;12.40;99.90
7472;DHT22;3777;48.722;8.110;2024-02-16T07:44:15;12.50;99.90
7472;DHT22;3777;48.722;8.110;2024-02-16T07:46:42;12.60;99.90
7472;DHT22;3777;48.722;8.110;2024-02-16T07:49:12;12.70;99.90
7472;DHT22;3777;48.722;8.110;2024-02-16T07:51:40;12.80;99.90
7472;DHT22;3777;48.722;8.110;2024-02-16T07:54:07;12.80;99.90
7472;DHT22;3777;48.722;8.110;2024-02-16T07:56:34;12.90;99.90
7472;DHT22;3777;48.722;8.110;2024-02-16T07:59:01;13.00;99.90
7472;DHT22;3777;48.722;8.110;2024-02-16T08:01:28;13.10;99.90
7472;DHT22;3777;48.722;8.110;2024-02-16T08:03:54;13.10;99.90
7472;DHT22;3777;48.722;8.110;2024-02-16T08:06:26;13.20;99.90
7472;DHT22;3777;48.722;8.110;2024-02-16T08:08:53;13.30;99.90
7472;DHT22;3777;48.722;8.110;2024-02-16T08:11:20;13.40;99.90
7472;DHT22;3777;48.722;8.110;2024-02-16T08:13:47;13.50;99.90
7472;DHT22;3777;48.722;8.110;2024-02-16T08:16:13;13.60;99.90
7472;DHT22;3777;48.722;8.110;2024-02-16T08:18:42;13.70;99.90
7472;DHT22;3777;48.722;8.110;2024-02-16T08:21:09;13.80;99.90
7472;DHT22;3777;48.722;8.110;2024-02-16T08:23:37;13.90;99.90
7472;DHT22;3777;48.722;8.110;2024-02-16T08:26:04;14.00;99.90
7472;DHT22;3777;48.722;8.110;2024-02-16T08:28:31;14.10;99.90
7472;DHT22;3777;48.722;8.110;2024-02-16T08:30:58;14.10;99.90
7472;DHT22;3777;48.722;8.110;2024-02-16T08:33:24;14.20;99.90
7472;DHT22;3777;48.722;8.110;2024-02-16T08:35:51;14.30;99.90
7472;DHT22;3777;48.722;8.110;2024-02-16T08:38:18;14.40;99.90
7472;DHT22;3777;48.722;8.110;2024-02-16T08:40:47;14.50;99.90
7472;DHT22;3777;48.722;8.110;2024-02-16T08:43:18;14.50;99.90
7472;DHT22;3777;48.722;8.110;2024-02-16T08:45:44;14.70;99.90
7472;DHT22;3777;48.722;8.110;2024-02-16T08:48:11;14.80;99.90
7472;DHT22;3777;48.722;8.110;2024-02-16T08:50:38;14.90;99.90
7472;DHT22;3777;48.722;8.110;2024-02-16T08:53:05;14.90;99.90
7472;DHT22;3777;48.722;8.110;2024-02-16T08:55:31;15.00;99.90
7472;DHT22;3777;48.722;8.110;2024-02-16T08:58:00;15.00;99.90
7472;DHT22;3777;48.722;8.110;2024-02-16T09:00:26;15.20;99.90
7472;DHT22;3777;48.722;8.110;2024-02-16T09:02:53;15.30;99.90
7472;DHT22;3777;48.722;8.110;2024-02-16T09:05:20;15.40;99.90
7472;DHT22;3777;48.722;8.110;2024-02-16T09:07:47;15.50;99.90
7472;DHT22;3777;48.722;8.110;2024-02-16T09:10:14;15.70;99.90
7472;DHT22;3777;48.722;8.110;2024-02-16T09:12:41;15.80;99.90
7472;DHT22;3777;48.722;8.110;2024-02-16T09:15:10;16.00;99.90
7472;DHT22;3777;48.722;8.110;2024-02-16T09:17:37;16.00;99.90
7472;DHT22;3777;48.722;8.110;2024-02-16T09:20:05;16.10;99.90
7472;DHT22;3777;48.722;8.110;2024-02-16T09:22:33;16.20;99.90
7472;DHT22;3777;48.722;8.110;2024-02-16T09:25:01;16.30;99.90
7472;DHT22;3777;48.722;8.110;2024-02-16T09:27:28;16.40;99.90
7472;DHT22;3777;48.722;8.110;2024-02-16T09:29:55;16.50;99.90
7472;DHT22;3777;48.722;8.110;2024-02-16T09:32:23;16.50;99.90
7472;DHT22;3777;48.722;8.110;2024-02-16T09:34:50;16.50;99.90
7472;DHT22;3777;48.722;8.110;2024-02-16T09:37:17;16.50;99.90
7472;DHT22;3777;48.722;8.110;2024-02-16T09:39:44;16.60;99.90
7472;DHT22;3777;48.722;8.110;2024-02-16T09:42:11;16.70;99.90
7472;DHT22;3777;48.722;8.110;2024-02-16T09:44:40;16.80;99.90
7472;DHT22;3777;48.722;8.110;2024-02-16T09:47:09;17.00;99.90
7472;DHT22;3777;48.722;8.110;2024-02-16T09:49:39;17.10;99.90
7472;DHT22;3777;48.722;8.110;2024-02-16T09:52:09;17.40;99.90
7472;DHT22;3777;48.722;8.110;2024-02-16T09:54:37;17.50;99.90
7472;DHT22;3777;48.722;8.110;2024-02-16T09:57:05;17.70;99.90
7472;DHT22;3777;48.722;8.110;2024-02-16T09:59:32;17.80;99.90
7472;DHT22;3777;48.722;8.110;2024-02-16T10:02:02;17.90;99.90
7472;DHT22;3777;48.722;8.110;2024-02-16T10:04:29;18.00;99.90
7472;DHT22;3777;48.722;8.110;2024-02-16T10:06:57;18.00;99.90
7472;DHT22;3777;48.722;8.110;2024-02-16T10:09:25;18.10;99.90
7472;DHT22;3777;48.722;8.110;2024-02-16T10:11:52;18.20;99.90
7472;DHT22;3777;48.722;8.110;2024-02-16T10:14:19;18.30;99.90
7472;DHT22;3777;48.722;8.110;2024-02-16T10:16:46;18.40;99.90
7472;DHT22;3777;48.722;8.110;2024-02-16T10:19:13;18.40;99.90
7472;DHT22;3777;48.722;8.110;2024-02-16T10:21:42;18.60;99.90
7472;DHT22;3777;48.722;8.110;2024-02-16T10:24:11;18.90;99.90
7472;DHT22;3777;48.722;8.110;2024-02-16T10:26:40;19.40;99.90
7472;DHT22;3777;48.722;8.110;2024-02-16T10:29:09;19.90;99.90
7472;DHT22;3777;48.722;8.110;2024-02-16T10:31:36;20.20;99.90
7472;DHT22;3777;48.722;8.110;2024-02-16T10:34:04;20.20;99.90
7472;DHT22;3777;48.722;8.110;2024-02-16T10:36:33;20.10;99.90
7472;DHT22;3777;48.722;8.110;2024-02-16T10:39:01;20.30;99.90
7472;DHT22;3777;48.722;8.110;2024-02-16T10:41:33;20.80;99.90
7472;DHT22;3777;48.722;8.110;2024-02-16T10:44:01;21.10;99.90
7472;DHT22;3777;48.722;8.110;2024-02-16T10:46:28;21.60;99.90
7472;DHT22;3777;48.722;8.110;2024-02-16T10:48:55;22.30;99.90
7472;DHT22;3777;48.722;8.110;2024-02-16T10:51:24;22.90;99.90
7472;DHT22;3777;48.722;8.110;2024-02-16T10:53:54;23.60;99.90
7472;DHT22;3777;48.722;8.110;2024-02-16T10:56:32;24.20;99.90
7472;DHT22;3777;48.722;8.110;2024-02-16T10:59:04;24.40;99.90
7472;DHT22;3777;48.722;8.110;2024-02-16T11:01:37;24.80;99.90
7472;DHT22;3777;48.722;8.110;2024-02-16T11:04:06;25.20;99.90
7472;DHT22;3777;48.722;8.110;2024-02-16T11:06:45;25.00;99.90
7472;DHT22;3777;48.722;8.110;2024-02-16T11:09:23;24.20;99.90
7472;DHT22;3777;48.722;8.110;2024-02-16T11:11:54;23.50;99.90
7472;DHT22;3777;48.722;8.110;2024-02-16T11:14:22;22.80;99.90
7472;DHT22;3777;48.722;8.110;2024-02-16T11:16:53;22.20;99.90
7472;DHT22;3777;48.722;8.110;2024-02-16T11:19:21;21.90;99.90
7472;DHT22;3777;48.722;8.110;2024-02-16T11:21:57;21.50;99.90
7472;DHT22;3777;48.722;8.110;2024-02-16T11:24:30;21.20;99.90
7472;DHT22;3777;48.722;8.110;2024-02-16T11:27:01;20.90;99.90
7472;DHT22;3777;48.722;8.110;2024-02-16T11:29:33;20.80;99.90
7472;DHT22;3777;48.722;8.110;2024-02-16T11:32:01;20.70;99.90
7472;DHT22;3777;48.722;8.110;2024-02-16T11:34:29;20.60;99.90
7472;DHT22;3777;48.722;8.110;2024-02-16T11:36:56;20.50;99.90
7472;DHT22;3777;48.722;8.110;2024-02-16T11:39:24;20.30;99.90
7472;DHT22;3777;48.722;8.110;2024-02-16T11:42:04;20.20;99.90
7472;DHT22;3777;48.722;8.110;2024-02-16T11:44:31;20.10;99.90
7472;DHT22;3777;48.722;8.110;2024-02-16T11:46:59;20.00;99.90
7472;DHT22;3777;48.722;8.110;2024-02-16T11:49:27;19.90;99.90
7472;DHT22;3777;48.722;8.110;2024-02-16T11:51:54;19.80;99.90
7472;DHT22;3777;48.722;8.110;2024-02-16T11:54:21;19.70;99.90
7472;DHT22;3777;48.722;8.110;2024-02-16T11:56:48;19.70;99.90
7472;DHT22;3777;48.722;8.110;2024-02-16T11:59:18;19.70;99.90
7472;DHT22;3777;48.722;8.110;2024-02-16T12:01:49;19.60;99.90
7472;DHT22;3777;48.722;8.110;2024-02-16T12:04:20;19.70;99.90
7472;DHT22;3777;48.722;8.110;2024-02-16T12:06:47;19.70;99.90
7472;DHT22;3777;48.722;8.110;2024-02-16T12:09:15;19.70;99.90
7472;DHT22;3777;48.722;8.110;2024-02-16T12:11:43;19.50;99.90
7472;DHT22;3777;48.722;8.110;2024-02-16T12:14:10;19.40;99.90
7472;DHT22;3777;48.722;8.110;2024-02-16T12:16:38;19.30;99.90
7472;DHT22;3777;48.722;8.110;2024-02-16T12:19:05;19.00;99.90
7472;DHT22;3777;48.722;8.110;2024-02-16T12:21:32;18.90;99.90
7472;DHT22;3777;48.722;8.110;2024-02-16T12:23:59;18.60;99.90
7472;DHT22;3777;48.722;8.110;2024-02-16T12:26:26;18.40;99.90
7472;DHT22;3777;48.722;8.110;2024-02-16T12:28:53;18.30;99.90
7472;DHT22;3777;48.722;8.110;2024-02-16T12:31:20;18.10;99.90
7472;DHT22;3777;48.722;8.110;2024-02-16T12:33:48;18.10;99.90
7472;DHT22;3777;48.722;8.110;2024-02-16T12:36:15;17.90;99.90
7472;DHT22;3777;48.722;8.110;2024-02-16T12:38:42;17.80;99.90
7472;DHT22;3777;48.722;8.110;2024-02-16T12:41:10;17.80;99.90
7472;DHT22;3777;48.722;8.110;2024-02-16T12:43:37;17.90;99.90
7472;DHT22;3777;48.722;8.110;2024-02-16T12:46:04;17.80;99.90
7472;DHT22;3777;48.722;8.110;2024-02-16T12:48:30;17.70;99.90
7472;DHT22;3777;48.722;8.110;2024-02-16T12:50:58;17.80;99.90
7472;DHT22;3777;48.722;8.110;2024-02-16T12:53:25;17.80;99.90
7472;DHT22;3777;48.722;8.110;2024-02-16T12:55:55;17.90;99.90
7472;DHT22;3777;48.722;8.110;2024-02-16T12:58:21;17.80;99.90
7472;DHT22;3777;48.722;8.110;2024-02-16T13:00:48;17.90;99.90
7472;DHT22;3777;48.722;8.110;2024-02-16T13:03:15;18.00;99.90
7472;DHT22;3777;48.722;8.110;2024-02-16T13:05:42;18.00;99.90
7472;DHT22;3777;48.722;8.110;2024-02-16T13:08:10;18.10;99.90
7472;DHT22;3777;48.722;8.110;2024-02-16T13:10:37;18.10;99.90
7472;DHT22;3777;48.722;8.110;2024-02-16T13:13:04;18.20;99.90
7472;DHT22;3777;48.722;8.110;2024-02-16T13:15:31;18.20;99.90
7472;DHT22;3777;48.722;8.110;2024-02-16T13:17:58;18.20;99.90
7472;DHT22;3777;48.722;8.110;2024-02-16T13:20:24;18.20;99.90
7472;DHT22;3777;48.722;8.110;2024-02-16T13:22:51;18.30;99.90
7472;DHT22;3777;48.722;8.110;2024-02-16T13:25:20;18.30;99.90
7472;DHT22;3777;48.722;8.110;2024-02-16T13:27:47;18.30;99.90
7472;DHT22;3777;48.722;8.110;2024-02-16T13:30:14;18.30;99.90
7472;DHT22;3777;48.722;8.110;2024-02-16T13:32:41;18.30;99.90
7472;DHT22;3777;48.722;8.110;2024-02-16T13:35:08;18.30;99.90
7472;DHT22;3777;48.722;8.110;2024-02-16T13:37:35;18.20;99.90
7472;DHT22;3777;48.722;8.110;2024-02-16T13:40:03;18.10;99.90
7472;DHT22;3777;48.722;8.110;2024-02-16T13:42:34;18.00;99.90
7472;DHT22;3777;48.722;8.110;2024-02-16T13:45:01;17.90;99.90
7472;DHT22;3777;48.722;8.110;2024-02-16T13:47:28;17.80;99.90
7472;DHT22;3777;48.722;8.110;2024-02-16T13:49:55;17.80;99.90
7472;DHT22;3777;48.722;8.110;2024-02-16T13:52:22;17.70;99.90
7472;DHT22;3777;48.722;8.110;2024-02-16T13:54:50;17.60;99.90
7472;DHT22;3777;48.722;8.110;2024-02-16T13:57:17;17.50;99.90
7472;DHT22;3777;48.722;8.110;2024-02-16T13:59:45;17.50;99.90
7472;DHT22;3777;48.722;8.110;2024-02-16T14:02:12;17.50;99.90
7472;DHT22;3777;48.722;8.110;2024-02-16T14:04:39;17.40;99.90
7472;DHT22;3777;48.722;8.110;2024-02-16T14:07:07;17.40;99.90
7472;DHT22;3777;48.722;8.110;2024-02-16T14:09:34;17.40;99.90
7472;DHT22;3777;48.722;8.110;2024-02-16T14:12:01;17.40;99.90
7472;DHT22;3777;48.722;8.110;2024-02-16T14:14:28;17.30;99.90
7472;DHT22;3777;48.722;8.110;2024-02-16T14:16:56;17.20;99.90
7472;DHT22;3777;48.722;8.110;2024-02-16T14:19:23;17.20;99.90
7472;DHT22;3777;48.722;8.110;2024-02-16T14:21:50;17.20;99.90
7472;DHT22;3777;48.722;8.110;2024-02-16T14:24:17;17.10;99.90
7472;DHT22;3777;48.722;8.110;2024-02-16T14:26:43;17.10;99.90
7472;DHT22;3777;48.722;8.110;2024-02-16T14:29:11;17.00;99.90
7472;DHT22;3777;48.722;8.110;2024-02-16T14:31:38;17.10;99.90
7472;DHT22;3777;48.722;8.110;2024-02-16T14:34:06;17.00;99.90
7472;DHT22;3777;48.722;8.110;2024-02-16T14:36:33;17.00;99.90
7472;DHT22;3777;48.722;8.110;2024-02-16T14:38:59;17.00;99.90
7472;DHT22;3777;48.722;8.110;2024-02-16T14:41:26;16.90;99.90
7472;DHT22;3777;48.722;8.110;2024-02-16T14:43:55;16.90;99.90
7472;DHT22;3777;48.722;8.110;2024-02-16T14:46:25;16.80;99.90
7472;DHT22;3777;48.722;8.110;2024-02-16T14:48:52;16.80;99.90
7472;DHT22;3777;48.722;8.110;2024-02-16T14:51:20;16.70;99.90
7472;DHT22;3777;48.722;8.110;2024-02-16T14:53:47;16.60;99.90
7472;DHT22;3777;48.722;8.110;2024-02-16T14:56:14;16.60;99.90
7472;DHT22;3777;48.722;8.110;2024-02-16T14:58:44;16.60;99.90
7472;DHT22;3777;48.722;8.110;2024-02-16T15:01:12;16.40;99.90
7472;DHT22;3777;48.722;8.110;2024-02-16T15:03:41;16.40;99.90
7472;DHT22;3777;48.722;8.110;2024-02-16T15:06:07;16.30;99.90
7472;DHT22;3777;48.722;8.110;2024-02-16T15:08:35;16.20;99.90
7472;DHT22;3777;48.722;8.110;2024-02-16T15:11:02;16.10;99.90
7472;DHT22;3777;48.722;8.110;2024-02-16T15:13:30;16.00;99.90
7472;DHT22;3777;48.722;8.110;2024-02-16T15:15:57;16.00;99.90
7472;DHT22;3777;48.722;8.110;2024-02-16T15:18:24;16.00;99.90
7472;DHT22;3777;48.722;8.110;2024-02-16T15:20:51;15.90;99.90
7472;DHT22;3777;48.722;8.110;2024-02-16T15:23:17;15.90;99.90
7472;DHT22;3777;48.722;8.110;2024-02-16T15:25:46;15.80;99.90
7472;DHT22;3777;48.722;8.110;2024-02-16T15:28:12;15.80;99.90
7472;DHT22;3777;48.722;8.110;2024-02-16T15:30:39;15.70;99.90
7472;DHT22;3777;48.722;8.110;2024-02-16T15:33:06;15.70;99.90
7472;DHT22;3777;48.722;8.110;2024-02-16T15:35:33;15.60;99.90
7472;DHT22;3777;48.722;8.110;2024-02-16T15:38:00;15.60;99.90
7472;DHT22;3777;48.722;8.110;2024-02-16T15:40:26;15.50;99.90
7472;DHT22;3777;48.722;8.110;2024-02-16T15:43:02;15.50;99.90
7472;DHT22;3777;48.722;8.110;2024-02-16T15:45:30;15.50;99.90
7472;DHT22;3777;48.722;8.110;2024-02-16T15:47:58;15.40;99.90
7472;DHT22;3777;48.722;8.110;2024-02-16T15:50:25;15.30;99.90
7472;DHT22;3777;48.722;8.110;2024-02-16T15:52:52;15.20;99.90
7472;DHT22;3777;48.722;8.110;2024-02-16T15:55:19;15.20;99.90
7472;DHT22;3777;48.722;8.110;2024-02-16T15:57:47;15.20;99.90
7472;DHT22;3777;48.722;8.110;2024-02-16T16:00:16;15.10;99.90
7472;DHT22;3777;48.722;8.110;2024-02-16T16:02:43;15.10;99.90
7472;DHT22;3777;48.722;8.110;2024-02-16T16:05:10;15.00;99.90